sensor_id;sensor_type;location;lat;lon;timestamp;P1;durP1;ratioP1;P2;durP2;ratioP2
16804;SDS011;8520;50.102;20.010;2022-11-23T00:01:09;79.23;;;71.53;;
16804;SDS011;8520;50.102;20.010;2022-11-23T00:03:39;79.53;;;71.93;;
16804;SDS011;8520;50.102;20.010;2022-11-23T00:06:07;77.87;;;70.37;;
16804;SDS011;8520;50.102;20.010;2022-11-23T00:08:36;77.80;;;70.20;;
16804;SDS011;8520;50.102;20.010;2022-11-23T00:11:04;76.90;;;69.53;;
16804;SDS011;8520;50.102;20.010;2022-11-23T00:13:33;78.77;;;71.27;;
16804;SDS011;8520;50.102;20.010;2022-11-23T00:16:03;75.57;;;68.67;;
16804;SDS011;8520;50.102;20.010;2022-11-23T00:18:32;78.23;;;71.23;;
16804;SDS011;8520;50.102;20.010;2022-11-23T00:21:04;79.23;;;71.77;;
16804;SDS011;8520;50.102;20.010;2022-11-23T00:23:32;77.27;;;70.07;;
16804;SDS011;8520;50.102;20.010;2022-11-23T00:26:02;79.17;;;71.90;;
16804;SDS011;8520;50.102;20.010;2022-11-23T00:28:30;76.73;;;69.53;;
16804;SDS011;8520;50.102;20.010;2022-11-23T00:30:58;78.40;;;70.70;;
16804;SDS011;8520;50.102;20.010;2022-11-23T00:33:26;78.13;;;70.53;;
16804;SDS011;8520;50.102;20.010;2022-11-23T00:35:57;77.53;;;70.27;;
16804;SDS011;8520;50.102;20.010;2022-11-23T00:38:29;77.50;;;70.00;;
16804;SDS011;8520;50.102;20.010;2022-11-23T00:40:58;76.83;;;69.43;;
16804;SDS011;8520;50.102;20.010;2022-11-23T00:43:29;77.00;;;69.77;;
16804;SDS011;8520;50.102;20.010;2022-11-23T00:46:01;77.80;;;70.47;;
16804;SDS011;8520;50.102;20.010;2022-11-23T00:48:33;76.63;;;69.50;;
16804;SDS011;8520;50.102;20.010;2022-11-23T00:51:02;77.57;;;70.47;;
16804;SDS011;8520;50.102;20.010;2022-11-23T00:53:31;77.33;;;70.10;;
16804;SDS011;8520;50.102;20.010;2022-11-23T00:55:59;75.73;;;68.93;;
16804;SDS011;8520;50.102;20.010;2022-11-23T00:58:29;77.60;;;70.40;;
16804;SDS011;8520;50.102;20.010;2022-11-23T01:01:01;79.57;;;72.07;;
16804;SDS011;8520;50.102;20.010;2022-11-23T01:03:33;78.50;;;71.20;;
16804;SDS011;8520;50.102;20.010;2022-11-23T01:06:04;73.53;;;66.90;;
16804;SDS011;8520;50.102;20.010;2022-11-23T01:08:32;79.60;;;72.10;;
16804;SDS011;8520;50.102;20.010;2022-11-23T01:11:01;74.53;;;67.83;;
16804;SDS011;8520;50.102;20.010;2022-11-23T01:13:34;77.97;;;70.97;;
16804;SDS011;8520;50.102;20.010;2022-11-23T01:16:03;76.70;;;69.60;;
16804;SDS011;8520;50.102;20.010;2022-11-23T01:18:32;76.00;;;68.80;;
16804;SDS011;8520;50.102;20.010;2022-11-23T01:21:00;77.33;;;70.37;;
16804;SDS011;8520;50.102;20.010;2022-11-23T01:23:29;72.13;;;65.73;;
16804;SDS011;8520;50.102;20.010;2022-11-23T01:26:02;75.60;;;68.70;;
16804;SDS011;8520;50.102;20.010;2022-11-23T01:28:31;75.83;;;68.80;;
16804;SDS011;8520;50.102;20.010;2022-11-23T01:31:05;74.87;;;67.87;;
16804;SDS011;8520;50.102;20.010;2022-11-23T01:33:35;74.30;;;67.43;;
16804;SDS011;8520;50.102;20.010;2022-11-23T01:36:10;72.20;;;65.80;;
16804;SDS011;8520;50.102;20.010;2022-11-23T01:38:38;74.67;;;67.60;;
16804;SDS011;8520;50.102;20.010;2022-11-23T01:41:07;74.80;;;68.00;;
16804;SDS011;8520;50.102;20.010;2022-11-23T01:43:38;74.73;;;67.57;;
16804;SDS011;8520;50.102;20.010;2022-11-23T01:46:08;72.27;;;65.47;;
16804;SDS011;8520;50.102;20.010;2022-11-23T01:48:38;71.30;;;64.90;;
16804;SDS011;8520;50.102;20.010;2022-11-23T01:51:10;71.87;;;65.17;;
16804;SDS011;8520;50.102;20.010;2022-11-23T01:53:41;67.23;;;61.03;;
16804;SDS011;8520;50.102;20.010;2022-11-23T01:56:13;69.83;;;63.30;;
16804;SDS011;8520;50.102;20.010;2022-11-23T01:58:44;72.17;;;65.53;;
16804;SDS011;8520;50.102;20.010;2022-11-23T02:01:16;67.57;;;61.37;;
16804;SDS011;8520;50.102;20.010;2022-11-23T02:03:45;68.60;;;62.30;;
16804;SDS011;8520;50.102;20.010;2022-11-23T02:06:15;70.53;;;63.97;;
16804;SDS011;8520;50.102;20.010;2022-11-23T02:08:44;68.23;;;62.03;;
16804;SDS011;8520;50.102;20.010;2022-11-23T02:11:14;67.00;;;60.90;;
16804;SDS011;8520;50.102;20.010;2022-11-23T02:13:43;66.60;;;60.57;;
16804;SDS011;8520;50.102;20.010;2022-11-23T02:16:15;67.53;;;61.07;;
16804;SDS011;8520;50.102;20.010;2022-11-23T02:18:44;67.07;;;60.67;;
16804;SDS011;8520;50.102;20.010;2022-11-23T02:21:17;68.03;;;61.43;;
16804;SDS011;8520;50.102;20.010;2022-11-23T02:23:47;65.37;;;59.37;;
16804;SDS011;8520;50.102;20.010;2022-11-23T02:26:24;68.70;;;62.13;;
16804;SDS011;8520;50.102;20.010;2022-11-23T02:28:58;65.80;;;59.80;;
16804;SDS011;8520;50.102;20.010;2022-11-23T02:31:29;65.63;;;59.47;;
16804;SDS011;8520;50.102;20.010;2022-11-23T02:33:57;67.73;;;61.33;;
16804;SDS011;8520;50.102;20.010;2022-11-23T02:36:34;67.73;;;61.43;;
16804;SDS011;8520;50.102;20.010;2022-11-23T02:39:06;68.17;;;61.83;;
16804;SDS011;8520;50.102;20.010;2022-11-23T02:41:40;68.10;;;61.63;;
16804;SDS011;8520;50.102;20.010;2022-11-23T02:44:12;64.57;;;58.77;;
16804;SDS011;8520;50.102;20.010;2022-11-23T02:46:48;67.40;;;61.27;;
16804;SDS011;8520;50.102;20.010;2022-11-23T02:49:16;66.13;;;59.90;;
16804;SDS011;8520;50.102;20.010;2022-11-23T02:51:44;65.73;;;59.60;;
16804;SDS011;8520;50.102;20.010;2022-11-23T02:54:12;65.50;;;59.40;;
16804;SDS011;8520;50.102;20.010;2022-11-23T02:56:41;67.00;;;60.87;;
16804;SDS011;8520;50.102;20.010;2022-11-23T02:59:09;65.87;;;59.97;;
16804;SDS011;8520;50.102;20.010;2022-11-23T03:01:37;66.40;;;60.30;;
16804;SDS011;8520;50.102;20.010;2022-11-23T03:04:06;66.67;;;60.50;;
16804;SDS011;8520;50.102;20.010;2022-11-23T03:06:35;67.27;;;60.77;;
16804;SDS011;8520;50.102;20.010;2022-11-23T03:09:03;64.63;;;58.70;;
16804;SDS011;8520;50.102;20.010;2022-11-23T03:11:31;63.90;;;58.13;;
16804;SDS011;8520;50.102;20.010;2022-11-23T03:14:02;65.10;;;59.13;;
16804;SDS011;8520;50.102;20.010;2022-11-23T03:16:39;66.23;;;60.10;;
16804;SDS011;8520;50.102;20.010;2022-11-23T03:19:07;68.47;;;61.97;;
16804;SDS011;8520;50.102;20.010;2022-11-23T03:21:35;66.03;;;60.00;;
16804;SDS011;8520;50.102;20.010;2022-11-23T03:24:06;65.87;;;59.93;;
16804;SDS011;8520;50.102;20.010;2022-11-23T03:26:35;66.57;;;60.47;;
16804;SDS011;8520;50.102;20.010;2022-11-23T03:29:13;66.00;;;59.93;;
16804;SDS011;8520;50.102;20.010;2022-11-23T03:31:42;64.60;;;58.90;;
16804;SDS011;8520;50.102;20.010;2022-11-23T03:34:13;65.53;;;59.50;;
16804;SDS011;8520;50.102;20.010;2022-11-23T03:36:42;64.60;;;58.87;;
16804;SDS011;8520;50.102;20.010;2022-11-23T03:39:11;64.07;;;58.47;;
16804;SDS011;8520;50.102;20.010;2022-11-23T03:41:59;62.17;;;56.73;;
16804;SDS011;8520;50.102;20.010;2022-11-23T03:44:32;63.67;;;57.97;;
16804;SDS011;8520;50.102;20.010;2022-11-23T03:47:01;63.20;;;57.67;;
16804;SDS011;8520;50.102;20.010;2022-11-23T03:49:28;61.07;;;55.50;;
16804;SDS011;8520;50.102;20.010;2022-11-23T03:51:57;61.40;;;56.13;;
16804;SDS011;8520;50.102;20.010;2022-11-23T03:54:26;61.90;;;56.60;;
16804;SDS011;8520;50.102;20.010;2022-11-23T03:56:54;61.73;;;56.53;;
16804;SDS011;8520;50.102;20.010;2022-11-23T03:59:22;61.17;;;55.93;;
16804;SDS011;8520;50.102;20.010;2022-11-23T04:01:52;60.80;;;55.60;;
16804;SDS011;8520;50.102;20.010;2022-11-23T04:04:25;61.50;;;56.17;;
16804;SDS011;8520;50.102;20.010;2022-11-23T04:07:10;61.53;;;56.17;;
16804;SDS011;8520;50.102;20.010;2022-11-23T04:09:44;65.60;;;59.60;;
16804;SDS011;8520;50.102;20.010;2022-11-23T04:12:22;66.47;;;60.23;;
16804;SDS011;8520;50.102;20.010;2022-11-23T04:14:51;66.00;;;59.50;;
16804;SDS011;8520;50.102;20.010;2022-11-23T04:17:20;67.60;;;61.13;;
16804;SDS011;8520;50.102;20.010;2022-11-23T04:19:48;68.77;;;61.93;;
16804;SDS011;8520;50.102;20.010;2022-11-23T04:22:16;68.40;;;61.60;;
16804;SDS011;8520;50.102;20.010;2022-11-23T04:24:45;69.73;;;62.73;;
16804;SDS011;8520;50.102;20.010;2022-11-23T04:27:13;70.27;;;63.53;;
16804;SDS011;8520;50.102;20.010;2022-11-23T04:29:41;70.33;;;63.63;;
16804;SDS011;8520;50.102;20.010;2022-11-23T04:32:09;74.07;;;66.67;;
16804;SDS011;8520;50.102;20.010;2022-11-23T04:34:39;69.57;;;62.57;;
16804;SDS011;8520;50.102;20.010;2022-11-23T04:37:11;73.67;;;63.00;;
16804;SDS011;8520;50.102;20.010;2022-11-23T04:39:41;85.13;;;63.63;;
16804;SDS011;8520;50.102;20.010;2022-11-23T04:42:18;87.00;;;63.10;;
16804;SDS011;8520;50.102;20.010;2022-11-23T04:44:59;71.17;;;62.30;;
16804;SDS011;8520;50.102;20.010;2022-11-23T04:47:28;68.87;;;61.73;;
16804;SDS011;8520;50.102;20.010;2022-11-23T04:50:01;75.63;;;65.30;;
16804;SDS011;8520;50.102;20.010;2022-11-23T04:52:30;91.57;;;65.23;;
16804;SDS011;8520;50.102;20.010;2022-11-23T04:54:58;84.37;;;67.20;;
16804;SDS011;8520;50.102;20.010;2022-11-23T04:57:29;204.37;;;78.87;;
16804;SDS011;8520;50.102;20.010;2022-11-23T04:59:57;162.23;;;73.50;;
16804;SDS011;8520;50.102;20.010;2022-11-23T05:02:26;120.03;;;68.73;;
16804;SDS011;8520;50.102;20.010;2022-11-23T05:05:16;90.77;;;64.23;;
16804;SDS011;8520;50.102;20.010;2022-11-23T05:07:44;72.57;;;59.70;;
16804;SDS011;8520;50.102;20.010;2022-11-23T05:10:15;65.97;;;58.83;;
16804;SDS011;8520;50.102;20.010;2022-11-23T05:12:44;101.20;;;63.87;;
16804;SDS011;8520;50.102;20.010;2022-11-23T05:15:12;98.20;;;64.47;;
16804;SDS011;8520;50.102;20.010;2022-11-23T05:17:42;207.60;;;73.57;;
16804;SDS011;8520;50.102;20.010;2022-11-23T05:20:20;108.37;;;63.57;;
16804;SDS011;8520;50.102;20.010;2022-11-23T05:22:48;168.30;;;68.60;;
16804;SDS011;8520;50.102;20.010;2022-11-23T05:25:19;77.53;;;57.47;;
16804;SDS011;8520;50.102;20.010;2022-11-23T05:27:55;89.53;;;60.43;;
16804;SDS011;8520;50.102;20.010;2022-11-23T05:30:29;65.10;;;57.97;;
16804;SDS011;8520;50.102;20.010;2022-11-23T05:32:58;91.33;;;57.03;;
16804;SDS011;8520;50.102;20.010;2022-11-23T05:35:30;73.80;;;54.83;;
16804;SDS011;8520;50.102;20.010;2022-11-23T05:37:58;81.27;;;54.90;;
16804;SDS011;8520;50.102;20.010;2022-11-23T05:40:27;69.13;;;53.90;;
16804;SDS011;8520;50.102;20.010;2022-11-23T05:42:57;97.80;;;53.30;;
16804;SDS011;8520;50.102;20.010;2022-11-23T05:45:27;134.67;;;54.97;;
16804;SDS011;8520;50.102;20.010;2022-11-23T05:47:56;60.43;;;49.60;;
16804;SDS011;8520;50.102;20.010;2022-11-23T05:50:38;78.93;;;50.60;;
16804;SDS011;8520;50.102;20.010;2022-11-23T05:53:22;102.00;;;52.43;;
16804;SDS011;8520;50.102;20.010;2022-11-23T05:55:57;208.63;;;65.10;;
16804;SDS011;8520;50.102;20.010;2022-11-23T05:58:28;148.03;;;58.47;;
16804;SDS011;8520;50.102;20.010;2022-11-23T06:00:56;100.93;;;51.40;;
16804;SDS011;8520;50.102;20.010;2022-11-23T06:03:29;373.67;;;74.07;;
16804;SDS011;8520;50.102;20.010;2022-11-23T06:05:59;271.13;;;68.97;;
16804;SDS011;8520;50.102;20.010;2022-11-23T06:08:33;80.47;;;49.67;;
16804;SDS011;8520;50.102;20.010;2022-11-23T06:11:02;123.53;;;55.00;;
16804;SDS011;8520;50.102;20.010;2022-11-23T06:13:31;142.47;;;57.27;;
16804;SDS011;8520;50.102;20.010;2022-11-23T06:15:59;152.03;;;56.47;;
16804;SDS011;8520;50.102;20.010;2022-11-23T06:18:38;413.47;;;87.47;;
16804;SDS011;8520;50.102;20.010;2022-11-23T06:21:09;53.47;;;47.77;;
16804;SDS011;8520;50.102;20.010;2022-11-23T06:23:37;108.00;;;50.93;;
16804;SDS011;8520;50.102;20.010;2022-11-23T06:26:05;136.70;;;56.87;;
16804;SDS011;8520;50.102;20.010;2022-11-23T06:28:34;469.40;;;90.97;;
16804;SDS011;8520;50.102;20.010;2022-11-23T06:31:03;399.70;;;82.33;;
16804;SDS011;8520;50.102;20.010;2022-11-23T06:33:34;54.97;;;48.43;;
16804;SDS011;8520;50.102;20.010;2022-11-23T06:36:02;52.80;;;47.30;;
16804;SDS011;8520;50.102;20.010;2022-11-23T06:38:37;50.57;;;46.50;;
16804;SDS011;8520;50.102;20.010;2022-11-23T06:41:11;97.43;;;51.33;;
16804;SDS011;8520;50.102;20.010;2022-11-23T06:43:39;101.70;;;51.03;;
16804;SDS011;8520;50.102;20.010;2022-11-23T06:46:07;140.03;;;54.80;;
16804;SDS011;8520;50.102;20.010;2022-11-23T06:48:41;134.43;;;51.23;;
16804;SDS011;8520;50.102;20.010;2022-11-23T06:51:11;338.97;;;72.47;;
16804;SDS011;8520;50.102;20.010;2022-11-23T06:53:41;380.33;;;71.67;;
16804;SDS011;8520;50.102;20.010;2022-11-23T06:56:11;311.63;;;71.03;;
16804;SDS011;8520;50.102;20.010;2022-11-23T06:58:40;111.03;;;50.33;;
16804;SDS011;8520;50.102;20.010;2022-11-23T07:01:14;620.43;;;99.43;;
16804;SDS011;8520;50.102;20.010;2022-11-23T07:03:57;170.60;;;58.37;;
16804;SDS011;8520;50.102;20.010;2022-11-23T07:06:30;450.50;;;85.80;;
16804;SDS011;8520;50.102;20.010;2022-11-23T07:09:05;317.73;;;73.33;;
16804;SDS011;8520;50.102;20.010;2022-11-23T07:11:46;303.43;;;72.30;;
16804;SDS011;8520;50.102;20.010;2022-11-23T07:14:15;114.07;;;53.57;;
16804;SDS011;8520;50.102;20.010;2022-11-23T07:16:45;135.73;;;54.33;;
16804;SDS011;8520;50.102;20.010;2022-11-23T07:19:13;165.83;;;57.83;;
16804;SDS011;8520;50.102;20.010;2022-11-23T07:21:43;262.63;;;63.93;;
16804;SDS011;8520;50.102;20.010;2022-11-23T07:24:12;51.90;;;47.23;;
16804;SDS011;8520;50.102;20.010;2022-11-23T07:26:41;188.07;;;57.10;;
16804;SDS011;8520;50.102;20.010;2022-11-23T07:29:09;54.40;;;49.07;;
16804;SDS011;8520;50.102;20.010;2022-11-23T07:31:37;53.03;;;47.47;;
16804;SDS011;8520;50.102;20.010;2022-11-23T07:34:06;54.20;;;48.57;;
16804;SDS011;8520;50.102;20.010;2022-11-23T07:36:34;154.13;;;54.83;;
16804;SDS011;8520;50.102;20.010;2022-11-23T07:39:03;270.17;;;66.70;;
16804;SDS011;8520;50.102;20.010;2022-11-23T07:41:32;58.93;;;48.37;;
16804;SDS011;8520;50.102;20.010;2022-11-23T07:44:17;168.57;;;57.50;;
16804;SDS011;8520;50.102;20.010;2022-11-23T07:46:45;53.20;;;48.17;;
16804;SDS011;8520;50.102;20.010;2022-11-23T07:49:13;51.97;;;47.27;;
16804;SDS011;8520;50.102;20.010;2022-11-23T07:51:41;213.30;;;62.87;;
16804;SDS011;8520;50.102;20.010;2022-11-23T07:54:09;173.83;;;58.87;;
16804;SDS011;8520;50.102;20.010;2022-11-23T07:56:38;56.10;;;50.13;;
16804;SDS011;8520;50.102;20.010;2022-11-23T07:59:06;72.30;;;51.47;;
16804;SDS011;8520;50.102;20.010;2022-11-23T08:01:34;55.83;;;49.80;;
16804;SDS011;8520;50.102;20.010;2022-11-23T08:04:02;55.30;;;49.70;;
16804;SDS011;8520;50.102;20.010;2022-11-23T08:06:31;54.47;;;48.90;;
16804;SDS011;8520;50.102;20.010;2022-11-23T08:08:59;105.60;;;54.77;;
16804;SDS011;8520;50.102;20.010;2022-11-23T08:11:27;56.47;;;51.03;;
16804;SDS011;8520;50.102;20.010;2022-11-23T08:13:56;54.87;;;49.77;;
16804;SDS011;8520;50.102;20.010;2022-11-23T08:16:24;120.97;;;53.80;;
16804;SDS011;8520;50.102;20.010;2022-11-23T08:18:52;56.70;;;50.67;;
16804;SDS011;8520;50.102;20.010;2022-11-23T08:21:20;58.00;;;51.67;;
16804;SDS011;8520;50.102;20.010;2022-11-23T08:23:48;57.30;;;51.70;;
16804;SDS011;8520;50.102;20.010;2022-11-23T08:26:16;57.73;;;51.73;;
16804;SDS011;8520;50.102;20.010;2022-11-23T08:28:44;56.50;;;50.90;;
16804;SDS011;8520;50.102;20.010;2022-11-23T08:31:13;55.80;;;50.30;;
16804;SDS011;8520;50.102;20.010;2022-11-23T08:33:41;54.93;;;49.93;;
16804;SDS011;8520;50.102;20.010;2022-11-23T08:36:09;57.87;;;52.17;;
16804;SDS011;8520;50.102;20.010;2022-11-23T08:38:37;58.17;;;52.43;;
16804;SDS011;8520;50.102;20.010;2022-11-23T08:41:05;57.60;;;52.13;;
16804;SDS011;8520;50.102;20.010;2022-11-23T08:43:34;57.10;;;51.83;;
16804;SDS011;8520;50.102;20.010;2022-11-23T08:46:02;54.83;;;49.80;;
16804;SDS011;8520;50.102;20.010;2022-11-23T08:48:38;54.93;;;50.00;;
16804;SDS011;8520;50.102;20.010;2022-11-23T08:51:06;54.67;;;49.77;;
16804;SDS011;8520;50.102;20.010;2022-11-23T08:53:34;55.07;;;49.90;;
16804;SDS011;8520;50.102;20.010;2022-11-23T08:56:03;55.13;;;50.13;;
16804;SDS011;8520;50.102;20.010;2022-11-23T08:58:32;55.13;;;49.97;;
16804;SDS011;8520;50.102;20.010;2022-11-23T09:01:00;56.30;;;51.00;;
16804;SDS011;8520;50.102;20.010;2022-11-23T09:03:29;56.67;;;51.27;;
16804;SDS011;8520;50.102;20.010;2022-11-23T09:05:59;54.33;;;49.40;;
16804;SDS011;8520;50.102;20.010;2022-11-23T09:08:27;55.57;;;50.70;;
16804;SDS011;8520;50.102;20.010;2022-11-23T09:10:57;54.67;;;49.67;;
16804;SDS011;8520;50.102;20.010;2022-11-23T09:13:26;56.03;;;50.73;;
16804;SDS011;8520;50.102;20.010;2022-11-23T09:15:57;54.90;;;49.93;;
16804;SDS011;8520;50.102;20.010;2022-11-23T09:18:26;54.43;;;49.43;;
16804;SDS011;8520;50.102;20.010;2022-11-23T09:20:55;55.10;;;50.00;;
16804;SDS011;8520;50.102;20.010;2022-11-23T09:23:25;55.37;;;50.27;;
16804;SDS011;8520;50.102;20.010;2022-11-23T09:25:56;54.50;;;49.53;;
16804;SDS011;8520;50.102;20.010;2022-11-23T09:28:24;56.47;;;51.20;;
16804;SDS011;8520;50.102;20.010;2022-11-23T09:30:54;57.30;;;51.90;;
16804;SDS011;8520;50.102;20.010;2022-11-23T09:33:23;57.13;;;51.73;;
16804;SDS011;8520;50.102;20.010;2022-11-23T09:35:55;57.80;;;52.33;;
16804;SDS011;8520;50.102;20.010;2022-11-23T09:38:25;57.40;;;51.90;;
16804;SDS011;8520;50.102;20.010;2022-11-23T09:41:19;57.40;;;52.20;;
16804;SDS011;8520;50.102;20.010;2022-11-23T09:43:58;58.13;;;52.57;;
16804;SDS011;8520;50.102;20.010;2022-11-23T09:46:35;56.87;;;51.70;;
16804;SDS011;8520;50.102;20.010;2022-11-23T09:49:12;57.83;;;52.03;;
16804;SDS011;8520;50.102;20.010;2022-11-23T09:51:42;60.53;;;54.73;;
16804;SDS011;8520;50.102;20.010;2022-11-23T09:54:23;58.93;;;53.13;;
16804;SDS011;8520;50.102;20.010;2022-11-23T09:56:56;58.17;;;52.67;;
16804;SDS011;8520;50.102;20.010;2022-11-23T09:59:33;55.73;;;50.83;;
16804;SDS011;8520;50.102;20.010;2022-11-23T10:02:09;56.97;;;51.83;;
16804;SDS011;8520;50.102;20.010;2022-11-23T10:04:46;57.57;;;52.30;;
16804;SDS011;8520;50.102;20.010;2022-11-23T10:07:19;55.93;;;50.73;;
16804;SDS011;8520;50.102;20.010;2022-11-23T10:09:59;55.67;;;50.53;;
16804;SDS011;8520;50.102;20.010;2022-11-23T10:12:38;56.13;;;51.03;;
16804;SDS011;8520;50.102;20.010;2022-11-23T10:15:13;56.10;;;51.00;;
16804;SDS011;8520;50.102;20.010;2022-11-23T10:20:47;57.53;;;51.90;;
16804;SDS011;8520;50.102;20.010;2022-11-23T10:23:26;55.90;;;50.80;;
16804;SDS011;8520;50.102;20.010;2022-11-23T10:26:11;56.90;;;51.00;;
16804;SDS011;8520;50.102;20.010;2022-11-23T10:28:44;55.93;;;50.93;;
16804;SDS011;8520;50.102;20.010;2022-11-23T10:31:13;53.47;;;48.80;;
16804;SDS011;8520;50.102;20.010;2022-11-23T10:33:48;54.50;;;49.43;;
16804;SDS011;8520;50.102;20.010;2022-11-23T10:36:22;55.33;;;50.33;;
16804;SDS011;8520;50.102;20.010;2022-11-23T10:38:51;56.90;;;51.53;;
16804;SDS011;8520;50.102;20.010;2022-11-23T10:41:24;55.90;;;50.70;;
16804;SDS011;8520;50.102;20.010;2022-11-23T10:43:54;56.93;;;51.53;;
16804;SDS011;8520;50.102;20.010;2022-11-23T10:46:30;56.03;;;50.80;;
16804;SDS011;8520;50.102;20.010;2022-11-23T10:49:11;53.00;;;48.10;;
16804;SDS011;8520;50.102;20.010;2022-11-23T10:51:52;54.10;;;49.17;;
16804;SDS011;8520;50.102;20.010;2022-11-23T10:54:31;53.83;;;49.00;;
16804;SDS011;8520;50.102;20.010;2022-11-23T10:57:19;51.17;;;46.67;;
16804;SDS011;8520;50.102;20.010;2022-11-23T10:59:56;53.57;;;48.60;;
16804;SDS011;8520;50.102;20.010;2022-11-23T11:02:26;53.33;;;48.63;;
16804;SDS011;8520;50.102;20.010;2022-11-23T11:07:40;55.30;;;50.13;;
16804;SDS011;8520;50.102;20.010;2022-11-23T11:10:29;54.67;;;49.53;;
16804;SDS011;8520;50.102;20.010;2022-11-23T11:13:19;56.60;;;51.27;;
16804;SDS011;8520;50.102;20.010;2022-11-23T11:15:52;55.97;;;50.60;;
16804;SDS011;8520;50.102;20.010;2022-11-23T11:18:23;56.90;;;51.50;;
16804;SDS011;8520;50.102;20.010;2022-11-23T11:20:55;59.33;;;53.70;;
16804;SDS011;8520;50.102;20.010;2022-11-23T11:23:25;56.80;;;51.37;;
16804;SDS011;8520;50.102;20.010;2022-11-23T11:26:02;54.97;;;49.73;;
16804;SDS011;8520;50.102;20.010;2022-11-23T11:28:34;57.03;;;51.47;;
16804;SDS011;8520;50.102;20.010;2022-11-23T11:31:14;58.77;;;52.77;;
16804;SDS011;8520;50.102;20.010;2022-11-23T11:33:52;59.20;;;53.40;;
16804;SDS011;8520;50.102;20.010;2022-11-23T11:36:33;60.37;;;53.93;;
16804;SDS011;8520;50.102;20.010;2022-11-23T11:39:05;59.50;;;53.67;;
16804;SDS011;8520;50.102;20.010;2022-11-23T11:41:46;59.27;;;53.67;;
16804;SDS011;8520;50.102;20.010;2022-11-23T11:44:18;57.47;;;52.17;;
16804;SDS011;8520;50.102;20.010;2022-11-23T11:46:50;59.63;;;53.83;;
16804;SDS011;8520;50.102;20.010;2022-11-23T11:49:23;59.90;;;53.77;;
16804;SDS011;8520;50.102;20.010;2022-11-23T11:51:57;60.50;;;54.40;;
16804;SDS011;8520;50.102;20.010;2022-11-23T11:54:32;59.53;;;53.53;;
16804;SDS011;8520;50.102;20.010;2022-11-23T11:57:11;61.37;;;54.83;;
16804;SDS011;8520;50.102;20.010;2022-11-23T11:59:45;62.67;;;56.17;;
16804;SDS011;8520;50.102;20.010;2022-11-23T12:02:20;63.53;;;57.03;;
16804;SDS011;8520;50.102;20.010;2022-11-23T12:05:03;63.40;;;57.07;;
16804;SDS011;8520;50.102;20.010;2022-11-23T12:07:41;64.20;;;57.43;;
16804;SDS011;8520;50.102;20.010;2022-11-23T12:10:15;62.43;;;55.93;;
16804;SDS011;8520;50.102;20.010;2022-11-23T12:12:47;60.97;;;54.63;;
16804;SDS011;8520;50.102;20.010;2022-11-23T12:15:16;60.20;;;54.17;;
16804;SDS011;8520;50.102;20.010;2022-11-23T12:18:14;61.50;;;55.50;;
16804;SDS011;8520;50.102;20.010;2022-11-23T12:21:01;60.13;;;53.93;;
16804;SDS011;8520;50.102;20.010;2022-11-23T12:23:35;61.23;;;55.17;;
16804;SDS011;8520;50.102;20.010;2022-11-23T12:26:13;60.83;;;54.83;;
16804;SDS011;8520;50.102;20.010;2022-11-23T12:32:07;63.87;;;57.37;;
16804;SDS011;8520;50.102;20.010;2022-11-23T12:34:53;62.20;;;55.93;;
16804;SDS011;8520;50.102;20.010;2022-11-23T12:37:39;64.17;;;57.60;;
16804;SDS011;8520;50.102;20.010;2022-11-23T12:40:22;65.10;;;58.43;;
16804;SDS011;8520;50.102;20.010;2022-11-23T12:43:12;63.03;;;56.57;;
16804;SDS011;8520;50.102;20.010;2022-11-23T12:45:57;63.03;;;56.70;;
16804;SDS011;8520;50.102;20.010;2022-11-23T12:48:41;63.10;;;56.70;;
16804;SDS011;8520;50.102;20.010;2022-11-23T12:51:23;62.17;;;55.97;;
16804;SDS011;8520;50.102;20.010;2022-11-23T12:54:05;66.33;;;59.27;;
16804;SDS011;8520;50.102;20.010;2022-11-23T12:56:49;66.77;;;59.97;;
16804;SDS011;8520;50.102;20.010;2022-11-23T12:59:29;65.30;;;58.83;;
16804;SDS011;8520;50.102;20.010;2022-11-23T13:02:10;67.43;;;60.87;;
16804;SDS011;8520;50.102;20.010;2022-11-23T13:08:09;66.20;;;59.80;;
16804;SDS011;8520;50.102;20.010;2022-11-23T13:10:51;66.50;;;59.97;;
16804;SDS011;8520;50.102;20.010;2022-11-23T13:13:31;65.53;;;59.23;;
16804;SDS011;8520;50.102;20.010;2022-11-23T13:16:23;67.30;;;60.70;;
16804;SDS011;8520;50.102;20.010;2022-11-23T13:19:27;66.57;;;60.20;;
16804;SDS011;8520;50.102;20.010;2022-11-23T13:22:03;66.97;;;60.57;;
16804;SDS011;8520;50.102;20.010;2022-11-23T13:24:37;61.60;;;56.00;;
16804;SDS011;8520;50.102;20.010;2022-11-23T13:29:58;61.13;;;55.23;;
16804;SDS011;8520;50.102;20.010;2022-11-23T13:32:34;62.00;;;56.17;;
16804;SDS011;8520;50.102;20.010;2022-11-23T13:44:19;61.33;;;55.97;;
16804;SDS011;8520;50.102;20.010;2022-11-23T13:47:03;60.03;;;54.80;;
16804;SDS011;8520;50.102;20.010;2022-11-23T13:49:34;59.77;;;54.47;;
16804;SDS011;8520;50.102;20.010;2022-11-23T13:54:59;57.33;;;52.33;;
16804;SDS011;8520;50.102;20.010;2022-11-23T13:57:35;57.90;;;52.70;;
16804;SDS011;8520;50.102;20.010;2022-11-23T14:06:20;55.90;;;51.30;;
16804;SDS011;8520;50.102;20.010;2022-11-23T14:09:00;57.03;;;51.97;;
16804;SDS011;8520;50.102;20.010;2022-11-23T14:11:38;55.47;;;50.93;;
16804;SDS011;8520;50.102;20.010;2022-11-23T14:14:19;57.20;;;52.07;;
16804;SDS011;8520;50.102;20.010;2022-11-23T14:17:00;55.30;;;50.63;;
16804;SDS011;8520;50.102;20.010;2022-11-23T14:19:44;54.80;;;49.90;;
16804;SDS011;8520;50.102;20.010;2022-11-23T14:22:32;54.07;;;49.47;;
16804;SDS011;8520;50.102;20.010;2022-11-23T14:25:24;54.20;;;49.50;;
16804;SDS011;8520;50.102;20.010;2022-11-23T14:28:02;54.40;;;49.57;;
16804;SDS011;8520;50.102;20.010;2022-11-23T14:30:43;54.27;;;49.67;;
16804;SDS011;8520;50.102;20.010;2022-11-23T14:33:24;54.63;;;49.83;;
16804;SDS011;8520;50.102;20.010;2022-11-23T14:36:02;54.07;;;49.33;;
16804;SDS011;8520;50.102;20.010;2022-11-23T14:41:37;52.70;;;48.20;;
16804;SDS011;8520;50.102;20.010;2022-11-23T14:44:09;53.70;;;48.93;;
16804;SDS011;8520;50.102;20.010;2022-11-23T14:49:27;51.70;;;47.20;;
16804;SDS011;8520;50.102;20.010;2022-11-23T14:51:55;51.00;;;46.70;;
16804;SDS011;8520;50.102;20.010;2022-11-23T14:54:24;51.13;;;46.87;;
16804;SDS011;8520;50.102;20.010;2022-11-23T14:56:56;51.80;;;47.43;;
16804;SDS011;8520;50.102;20.010;2022-11-23T14:59:27;50.03;;;45.83;;
16804;SDS011;8520;50.102;20.010;2022-11-23T15:01:58;49.50;;;45.07;;
16804;SDS011;8520;50.102;20.010;2022-11-23T15:04:29;49.27;;;45.27;;
16804;SDS011;8520;50.102;20.010;2022-11-23T15:07:03;48.90;;;44.73;;
16804;SDS011;8520;50.102;20.010;2022-11-23T15:09:45;49.50;;;45.17;;
16804;SDS011;8520;50.102;20.010;2022-11-23T15:12:21;49.77;;;45.67;;
16804;SDS011;8520;50.102;20.010;2022-11-23T15:14:51;49.70;;;45.50;;
16804;SDS011;8520;50.102;20.010;2022-11-23T15:17:23;49.43;;;45.23;;
16804;SDS011;8520;50.102;20.010;2022-11-23T15:19:55;48.93;;;44.93;;
16804;SDS011;8520;50.102;20.010;2022-11-23T15:22:24;50.07;;;45.83;;
16804;SDS011;8520;50.102;20.010;2022-11-23T15:24:53;49.67;;;45.53;;
16804;SDS011;8520;50.102;20.010;2022-11-23T15:27:33;47.80;;;43.93;;
16804;SDS011;8520;50.102;20.010;2022-11-23T15:30:12;47.87;;;44.07;;
16804;SDS011;8520;50.102;20.010;2022-11-23T15:32:42;48.63;;;44.67;;